WetterOnline ( https://www.wetteronline.de )

Wetter aktuell Messina

Aktuelles Wetter: Messina (51m)

6-stündlich | Neueste Meldungen
Ortszeit Temperatur Wetter
Mi, 20.11. 19:00 15.2° C leicht bewölkt
Mi, 20.11. 13:00 17.8° C leicht bewölkt
Mi, 20.11. 7:00 11.0° C leicht bewölkt
Mi, 20.11. 1:00 11.2° C fast wolkenlos
Di, 19.11. 19:00 13.2° C leichter Regen
Di, 19.11. 13:00 18.0° C wolkig
Di, 19.11. 7:00 16.4° C wolkig
Di, 19.11. 1:00 16.4° C wolkig
Ortszeit Temperatur Wetter
Mi, 20.11. 22:00 14.4° C leicht bewölkt
Mi, 20.11. 21:55 14° C leicht bewölkt
Mi, 20.11. 21:00 14.6° C leicht bewölkt
Mi, 20.11. 20:55 15° C leicht bewölkt
Mi, 20.11. 20:00 15.0° C fast wolkenlos
Mi, 20.11. 19:55 15° C leicht bewölkt
Mi, 20.11. 19:00 15.2° C leicht bewölkt
Mi, 20.11. 18:55 15° C leicht bewölkt
Mi, 20.11. 18:00 15.2° C leicht bewölkt
Ortszeit Relative Feuchte Sichtweite
Mi, 20.11. 19:00 66% 14 km
Mi, 20.11. 13:00 46% 20 km
Mi, 20.11. 7:00 89% 20 km
Mi, 20.11. 1:00 85% 16 km
Di, 19.11. 19:00 100% 8 km
Di, 19.11. 13:00 57% 20 km
Di, 19.11. 7:00 67% 10 km
Di, 19.11. 1:00 79% 12 km
Ortszeit Relative Feuchte Sichtweite
Mi, 20.11. 22:00 68% 10 km
Mi, 20.11. 21:55 72% >10 km
Mi, 20.11. 21:00 65% 10 km
Mi, 20.11. 20:55 63% >10 km
Mi, 20.11. 20:00 66% 10 km
Mi, 20.11. 19:55 67% >10 km
Mi, 20.11. 19:00 66% 14 km
Mi, 20.11. 18:55 67% >10 km
Mi, 20.11. 18:00 68% 10 km
Ortszeit Niederschlagsmenge Niederschlagsart
Mi, 20.11. 19:00 0.0 l/m2 in 12 Std. -
Mi, 20.11. 13:00 0.0 l/m2 in 6 Std. -
Mi, 20.11. 7:00 0.6 l/m2 in 12 Std. -
Mi, 20.11. 1:00 0.6 l/m2 in 6 Std. Regen
Di, 19.11. 19:00 10 l/m2 in 12 Std. Regen
Di, 19.11. 13:00 0.0 l/m2 in 6 Std. -
Di, 19.11. 7:00 0.0 l/m2 in 12 Std. -
Di, 19.11. 1:00 0.0 l/m2 in 6 Std. -
Ortszeit Niederschlagsmenge Niederschlagsart
Mi, 20.11. 22:00 keine Meldung -
Mi, 20.11. 21:55 keine Meldung -
Mi, 20.11. 21:00 keine Meldung -
Mi, 20.11. 20:55 keine Meldung -
Mi, 20.11. 20:00 keine Meldung -
Mi, 20.11. 19:55 keine Meldung -
Mi, 20.11. 19:00 keine Meldung -
Mi, 20.11. 18:55 keine Meldung -
Mi, 20.11. 18:00 keine Meldung -
Ortszeit Stärke Spitze Richtung
km/h Bft. km/h Grad Sektor
Mi, 20.11. 19:00 9 2 - 310° NW
Mi, 20.11. 13:00 7 2 - 280° W
Mi, 20.11. 7:00 2 1 - 280° W
Mi, 20.11. 1:00 6 1 - 240° SW
Di, 19.11. 19:00 0 0 - - -
Di, 19.11. 13:00 11 2 - 200° S
Di, 19.11. 7:00 9 2 - 190° S
Di, 19.11. 1:00 9 2 - 200° S
Ortszeit Stärke Spitze Richtung
km/h Bft. km/h Grad Sektor
Mi, 20.11. 22:00 2 1 - 310° NW
Mi, 20.11. 21:55 2 1 - 310° NW
Mi, 20.11. 21:00 4 1 - 300° NW
Mi, 20.11. 20:55 4 1 - 300° NW
Mi, 20.11. 20:00 6 1 - 320° NW
Mi, 20.11. 19:55 6 1 - 320° NW
Mi, 20.11. 19:00 9 2 - 310° NW
Mi, 20.11. 18:55 9 2 - 310° NW
Mi, 20.11. 18:00 9 2 - 300° NW
Ortszeit Untergrenze Bedeckung Gattung
total tief tief mittel hoch
Mi, 20.11. 19:00 1200 m 2/8 2/8 Sc - -
Mi, 20.11. 13:00 1200 m 2/8 2/8 Sc - -
Mi, 20.11. 7:00 1200 m 3/8 3/8 Sc - -
Mi, 20.11. 1:00 900 m 1/8 1/8 Sc - -
Di, 19.11. 19:00 900 m 7/8 5/8 Sc As Cs
Di, 19.11. 13:00 1200 m 7/8 4/8 Sc As Cs
Di, 19.11. 7:00 600 m 6/8 3/8 Sc As -
Di, 19.11. 1:00 450 m 6/8 4/8 Cu As -
Ortszeit Bedeckungsgrad in Achtel und Wolkenuntergrenze
Mi, 20.11. 22:00 2(1200m)
Mi, 20.11. 21:55 1-2(1200m)
Mi, 20.11. 21:00 2(1200m)
Mi, 20.11. 20:55 1-2(1200m)
Mi, 20.11. 20:00 1(1200m)
Mi, 20.11. 19:55 1-2(1200m)
Mi, 20.11. 19:00 2(1200m)
Mi, 20.11. 18:55 1-2(1200m)
Mi, 20.11. 18:00 3(1200m)
Ortszeit Luftdruck NN (hPa) Tendenz (hPa in 3 Std.)
Mi, 20.11. 19:00 1015 0,0
Mi, 20.11. 13:00 1015 + 0,3
Mi, 20.11. 7:00 1014 + 0,2
Mi, 20.11. 1:00 1013 - 0,1
Di, 19.11. 19:00 1015 + 0,1
Di, 19.11. 13:00 1014 - 1,9
Di, 19.11. 7:00 1017 - 0,5
Di, 19.11. 1:00 1018 + 0,1
Ortszeit Luftdruck NN (hPa) Tendenz (hPa in 3 Std.)
Mi, 20.11. 22:00 1016 + 0,4
Mi, 20.11. 21:55 1015 keine Meldung
Mi, 20.11. 21:00 1016 + 0,2
Mi, 20.11. 20:55 1015 keine Meldung
Mi, 20.11. 20:00 1015 0,0
Mi, 20.11. 19:55 1015 keine Meldung
Mi, 20.11. 19:00 1015 0,0
Mi, 20.11. 18:55 1015 keine Meldung
Mi, 20.11. 18:00 1015 + 0,9
Ortszeit Schneehöhe (cm)
Mi, 20.11. 19:00 -
Mi, 20.11. 13:00 -
Mi, 20.11. 7:00 0
Mi, 20.11. 1:00 -
Di, 19.11. 19:00 -
Di, 19.11. 13:00 -
Di, 19.11. 7:00 -
Di, 19.11. 1:00 -
Ortszeit Schneehöhe (cm)
Mi, 20.11. 22:00 -
Mi, 20.11. 21:55 -
Mi, 20.11. 21:00 -
Mi, 20.11. 20:55 -
Mi, 20.11. 20:00 -
Mi, 20.11. 19:55 -
Mi, 20.11. 19:00 -
Mi, 20.11. 18:55 -
Mi, 20.11. 18:00 -
Link zu dieser Seite / Seite empfehlen

Das Wetter in ...